createdAt,value
2022-11-21T00:01:28.159Z,60.63
2022-11-21T00:03:55.713Z,66.00
2022-11-21T00:06:23.868Z,64.03
2022-11-21T00:08:52.068Z,62.15
2022-11-21T00:11:19.270Z,67.73
2022-11-21T00:13:46.834Z,67.60
2022-11-21T00:16:17.515Z,63.80
2022-11-21T00:18:45.216Z,68.05
2022-11-21T00:21:16.426Z,67.03
2022-11-21T00:23:45.846Z,62.90
2022-11-21T00:26:15.432Z,65.97
2022-11-21T00:28:45.347Z,67.20
2022-11-21T00:31:24.240Z,64.55
2022-11-21T00:33:51.718Z,66.32
2022-11-21T00:36:18.928Z,60.87
2022-11-21T00:38:46.430Z,63.20
2022-11-21T00:41:13.644Z,59.63
2022-11-21T00:43:41.146Z,63.97
2022-11-21T00:46:08.354Z,64.83
2022-11-21T00:48:35.828Z,62.97
2022-11-21T00:51:03.095Z,64.40
2022-11-21T00:53:30.932Z,60.03
2022-11-21T00:55:59.674Z,56.53
2022-11-21T00:58:27.770Z,60.67
2022-11-21T01:01:13.820Z,58.92
2022-11-21T01:03:42.363Z,53.13
2022-11-21T01:06:13.598Z,59.38
2022-11-21T01:08:44.270Z,57.47
2022-11-21T01:11:15.823Z,64.43
2022-11-21T01:13:44.014Z,56.50
2022-11-21T01:16:38.671Z,65.45
2022-11-21T01:19:06.583Z,59.40
2022-11-21T01:21:33.835Z,61.53
2022-11-21T01:24:02.912Z,64.10
2022-11-21T01:26:33.104Z,63.88
2022-11-21T01:29:00.899Z,63.27
2022-11-21T01:31:30.474Z,68.67
2022-11-21T01:34:00.162Z,60.47
2022-11-21T01:36:33.755Z,65.18
2022-11-21T01:39:05.573Z,67.10
2022-11-21T01:41:37.236Z,62.50
2022-11-21T01:44:10.602Z,70.82
2022-11-21T01:46:37.815Z,76.93
2022-11-21T01:49:26.207Z,69.97
2022-11-21T01:51:58.131Z,72.32
2022-11-21T01:54:36.458Z,73.73
2022-11-21T01:57:34.020Z,67.43
2022-11-21T02:00:18.167Z,70.03
2022-11-21T02:02:55.397Z,69.15
2022-11-21T02:05:32.757Z,75.07
2022-11-21T02:08:09.974Z,70.73
2022-11-21T02:10:45.829Z,69.10
2022-11-21T02:13:13.018Z,64.43
2022-11-21T02:15:40.592Z,66.03
2022-11-21T02:18:10.244Z,65.63
2022-11-21T02:20:41.835Z,64.05
2022-11-21T02:23:21.560Z,75.35
2022-11-21T02:25:51.188Z,67.20
2022-11-21T02:28:23.644Z,73.87
2022-11-21T02:30:51.512Z,63.57
2022-11-21T02:33:19.203Z,71.17
2022-11-21T02:36:00.575Z,74.90
2022-11-21T02:38:38.875Z,65.97
2022-11-21T02:41:26.696Z,68.40
2022-11-21T02:44:05.709Z,61.80
2022-11-21T02:46:36.261Z,63.07
2022-11-21T02:49:08.465Z,59.57
2022-11-21T02:51:35.930Z,66.77
2022-11-21T02:54:03.145Z,58.67
2022-11-21T02:56:30.569Z,65.50
2022-11-21T02:58:57.897Z,63.93
2022-11-21T03:01:25.400Z,60.10
2022-11-21T03:03:52.544Z,66.07
2022-11-21T03:06:20.024Z,63.97
2022-11-21T03:08:47.178Z,58.87
2022-11-21T03:11:14.622Z,69.83
2022-11-21T03:13:41.757Z,67.83
2022-11-21T03:16:09.275Z,65.27
2022-11-21T03:18:36.390Z,64.87
2022-11-21T03:21:03.954Z,61.50
2022-11-21T03:23:31.132Z,65.97
2022-11-21T03:26:00.321Z,57.47
2022-11-21T03:28:27.458Z,53.10
2022-11-21T03:30:55.064Z,51.77
2022-11-21T03:33:22.183Z,51.60
2022-11-21T03:35:49.682Z,60.20
2022-11-21T03:38:16.870Z,56.10
2022-11-21T03:40:44.417Z,50.70
2022-11-21T03:43:11.577Z,53.47
2022-11-21T03:45:39.087Z,55.30
2022-11-21T03:48:06.614Z,53.43
2022-11-21T03:50:34.077Z,57.37
2022-11-21T03:53:01.156Z,58.33
2022-11-21T03:55:28.586Z,56.20
2022-11-21T03:57:55.796Z,60.40
2022-11-21T04:00:23.356Z,56.77
2022-11-21T04:02:50.491Z,53.60
2022-11-21T04:05:17.987Z,63.90
2022-11-21T04:07:46.398Z,59.20
2022-11-21T04:10:14.130Z,54.83
2022-11-21T04:12:41.350Z,56.67
2022-11-21T04:15:13.409Z,60.57
2022-11-21T04:17:40.955Z,56.17
2022-11-21T04:20:09.818Z,56.67
2022-11-21T04:22:37.028Z,58.57
2022-11-21T04:25:04.908Z,58.03
2022-11-21T04:27:32.085Z,61.37
2022-11-21T04:29:59.509Z,51.43
2022-11-21T04:32:26.701Z,60.13
2022-11-21T04:34:54.359Z,62.03
2022-11-21T04:37:21.732Z,55.63
2022-11-21T04:39:49.234Z,58.00
2022-11-21T04:42:16.395Z,59.97
2022-11-21T04:44:43.832Z,61.80
2022-11-21T04:47:11.102Z,55.80
2022-11-21T04:49:38.611Z,61.87
2022-11-21T04:52:05.907Z,59.67
2022-11-21T04:54:33.343Z,60.83
2022-11-21T04:57:01.334Z,62.17
2022-11-21T04:59:28.870Z,55.50
2022-11-21T05:01:55.995Z,58.57
2022-11-21T05:04:23.587Z,58.70
2022-11-21T05:06:50.834Z,68.00
2022-11-21T05:09:19.033Z,70.50
2022-11-21T05:12:04.813Z,68.73
2022-11-21T05:14:32.336Z,75.13
2022-11-21T05:16:59.632Z,73.70
2022-11-21T05:19:27.045Z,63.88
2022-11-21T05:21:54.254Z,68.90
2022-11-21T05:24:21.716Z,80.27
2022-11-21T05:26:48.895Z,76.70
2022-11-21T05:29:16.461Z,86.37
2022-11-21T05:31:43.633Z,85.77
2022-11-21T05:34:11.112Z,81.57
2022-11-21T05:36:38.293Z,95.60
2022-11-21T05:39:06.038Z,88.50
2022-11-21T05:41:33.577Z,87.53
2022-11-21T05:44:01.053Z,98.90
2022-11-21T05:46:28.278Z,99.43
2022-11-21T05:48:55.956Z,94.10
2022-11-21T05:51:23.101Z,94.37
2022-11-21T05:53:50.760Z,89.33
2022-11-21T05:56:19.791Z,94.60
2022-11-21T05:58:47.449Z,97.83
2022-11-21T06:01:15.850Z,94.90
2022-11-21T06:03:43.417Z,93.13
2022-11-21T06:06:14.698Z,88.83
2022-11-21T06:08:46.877Z,85.13
2022-11-21T06:11:16.758Z,85.37
2022-11-21T06:13:45.223Z,81.43
2022-11-21T06:16:19.766Z,88.13
2022-11-21T06:18:58.630Z,87.67
2022-11-21T06:21:29.371Z,101.17
2022-11-21T06:23:59.174Z,92.17
2022-11-21T06:26:27.757Z,105.23
2022-11-21T06:28:55.483Z,100.00
2022-11-21T06:31:26.933Z,97.63
2022-11-21T06:33:59.499Z,90.80
2022-11-21T06:36:27.371Z,103.33
2022-11-21T06:38:56.374Z,107.23
2022-11-21T06:41:27.230Z,98.00
2022-11-21T06:43:54.846Z,99.93
2022-11-21T06:46:22.061Z,100.40
2022-11-21T06:48:49.618Z,89.97
2022-11-21T06:51:23.624Z,93.43
2022-11-21T06:53:57.832Z,110.50
2022-11-21T06:56:30.770Z,107.60
2022-11-21T06:58:59.002Z,96.63
2022-11-21T07:01:26.929Z,101.83
2022-11-21T07:03:55.300Z,95.53
2022-11-21T07:06:23.599Z,105.77
2022-11-21T07:11:44.455Z,99.37
2022-11-21T07:14:12.141Z,96.50
2022-11-21T07:16:39.525Z,94.97
2022-11-21T07:19:07.003Z,88.33
2022-11-21T07:21:34.434Z,91.57
2022-11-21T07:24:02.507Z,84.57
2022-11-21T07:26:29.713Z,87.63
2022-11-21T07:28:58.633Z,82.53
2022-11-21T07:31:25.905Z,79.47
2022-11-21T07:33:53.419Z,84.17
2022-11-21T07:36:20.661Z,78.17
2022-11-21T07:38:48.188Z,80.57
2022-11-21T07:41:15.427Z,73.13
2022-11-21T07:43:42.939Z,72.70
2022-11-21T07:46:10.136Z,71.68
2022-11-21T07:48:37.774Z,65.10
2022-11-21T07:51:06.083Z,64.20
2022-11-21T07:53:33.755Z,73.15
2022-11-21T07:56:01.224Z,63.88
2022-11-21T07:58:28.864Z,65.72
2022-11-21T08:00:56.648Z,65.18
2022-11-21T08:03:25.444Z,66.28
2022-11-21T08:05:52.735Z,63.60
2022-11-21T08:08:20.335Z,66.10
2022-11-21T08:10:47.648Z,67.50
2022-11-21T08:13:15.381Z,65.72
2022-11-21T08:15:42.619Z,63.55
2022-11-21T08:18:21.016Z,67.70
2022-11-21T08:20:48.614Z,68.43
2022-11-21T08:23:16.488Z,65.22
2022-11-21T08:25:45.281Z,63.95
2022-11-21T08:28:13.658Z,72.88
2022-11-21T08:30:41.237Z,75.13
2022-11-21T08:33:09.176Z,76.60
2022-11-21T08:35:40.298Z,68.95
2022-11-21T08:38:08.621Z,73.88
2022-11-21T08:40:36.636Z,69.43
2022-11-21T08:43:09.958Z,81.28
2022-11-21T08:45:39.739Z,73.72
2022-11-21T08:48:11.917Z,76.82
2022-11-21T08:50:39.495Z,75.78
2022-11-21T08:53:07.016Z,83.25
2022-11-21T08:55:34.184Z,81.85
2022-11-21T08:58:01.780Z,75.07
2022-11-21T09:00:29.150Z,74.07
2022-11-21T09:02:56.642Z,77.47
2022-11-21T09:05:23.922Z,77.63
2022-11-21T09:07:58.493Z,80.72
2022-11-21T09:10:27.007Z,74.82
2022-11-21T09:13:00.031Z,74.97
2022-11-21T09:15:45.622Z,82.38
2022-11-21T09:18:13.339Z,83.40
2022-11-21T09:20:44.637Z,82.93
2022-11-21T09:23:15.876Z,76.32
2022-11-21T09:25:43.807Z,75.75
2022-11-21T09:28:14.141Z,78.22
2022-11-21T09:30:42.783Z,76.78
2022-11-21T09:33:19.206Z,79.47
2022-11-21T09:35:46.431Z,76.25
2022-11-21T09:38:13.975Z,78.15
2022-11-21T09:40:48.538Z,77.35
2022-11-21T09:43:38.381Z,75.25
2022-11-21T09:46:20.965Z,77.63
2022-11-21T09:49:05.221Z,80.93
2022-11-21T09:51:34.579Z,79.22
2022-11-21T09:54:19.293Z,80.28
2022-11-21T09:56:48.727Z,78.55
2022-11-21T09:59:21.971Z,71.90
2022-11-21T10:01:49.383Z,72.70
2022-11-21T10:04:17.094Z,69.90
2022-11-21T10:07:04.934Z,71.60
2022-11-21T10:10:10.496Z,68.70
2022-11-21T10:13:17.673Z,68.90
2022-11-21T10:16:06.503Z,73.38
2022-11-21T10:19:09.928Z,67.95
2022-11-21T10:21:53.805Z,65.97
2022-11-21T10:24:35.647Z,61.30
2022-11-21T10:27:36.801Z,61.67
2022-11-21T10:30:19.750Z,56.88
2022-11-21T10:32:54.831Z,58.47
2022-11-21T10:35:45.975Z,53.35
2022-11-21T10:38:26.128Z,52.50
2022-11-21T10:41:05.383Z,52.85
2022-11-21T10:44:35.650Z,45.38
2022-11-21T10:47:13.097Z,50.78
2022-11-21T10:49:43.639Z,50.67
2022-11-21T10:52:23.624Z,52.42
2022-11-21T10:55:15.164Z,56.67
2022-11-21T10:57:51.370Z,57.65
2022-11-21T11:00:28.009Z,53.70
2022-11-21T11:03:05.599Z,50.50
2022-11-21T11:05:37.275Z,54.17
2022-11-21T11:08:08.673Z,54.25
2022-11-21T11:11:02.091Z,51.40
2022-11-21T11:13:50.432Z,57.55
2022-11-21T11:16:21.985Z,51.50
2022-11-21T11:19:35.370Z,55.25
2022-11-21T11:22:29.577Z,56.78
2022-11-21T11:25:00.503Z,58.10
2022-11-21T11:27:29.931Z,53.70
2022-11-21T11:29:57.169Z,53.97
2022-11-21T11:32:25.088Z,53.35
2022-11-21T11:35:21.968Z,57.85
2022-11-21T11:38:04.163Z,53.55
2022-11-21T11:40:42.248Z,46.25
2022-11-21T11:44:10.217Z,34.53
2022-11-21T11:47:30.593Z,37.75
2022-11-21T11:50:17.003Z,29.23
2022-11-21T11:53:11.433Z,27.58
2022-11-21T11:55:57.537Z,28.63
2022-11-21T11:58:49.436Z,22.23
2022-11-21T12:01:36.648Z,21.70
2022-11-21T12:04:27.667Z,16.20
2022-11-21T12:08:19.792Z,16.58
2022-11-21T12:10:18.348Z,13.27
2022-11-21T12:13:05.576Z,12.70
2022-11-21T12:15:51.158Z,14.80
2022-11-21T12:18:18.587Z,14.73
2022-11-21T12:21:18.780Z,11.88
2022-11-21T12:23:56.141Z,10.00
2022-11-21T12:27:19.471Z,12.77
2022-11-21T12:30:07.326Z,10.85
2022-11-21T12:32:45.321Z,10.25
2022-11-21T12:35:49.828Z,10.88
2022-11-21T12:38:31.625Z,15.57
2022-11-21T12:41:46.754Z,12.38
2022-11-21T12:44:35.380Z,10.68
2022-11-21T12:48:03.827Z,12.35
2022-11-21T12:51:08.943Z,14.02
2022-11-21T12:54:19.569Z,12.82
2022-11-21T12:57:02.943Z,12.25
2022-11-21T12:59:40.012Z,10.60
2022-11-21T13:02:31.669Z,12.88
2022-11-21T13:05:02.944Z,10.48
2022-11-21T13:07:33.411Z,12.45
2022-11-21T13:10:03.605Z,13.25
2022-11-21T13:12:45.975Z,12.88
2022-11-21T13:15:19.697Z,13.43
2022-11-21T13:18:01.883Z,13.88
2022-11-21T13:20:45.900Z,12.38
2022-11-21T13:23:36.970Z,13.13
2022-11-21T13:26:33.888Z,16.30
2022-11-21T13:29:14.546Z,15.43
2022-11-21T13:31:43.499Z,16.80
2022-11-21T13:34:32.415Z,14.80
2022-11-21T13:37:00.056Z,15.20
2022-11-21T13:39:31.781Z,14.20
2022-11-21T13:42:23.667Z,12.98
2022-11-21T13:44:51.776Z,13.15
2022-11-21T13:47:56.899Z,13.32
2022-11-21T13:51:11.494Z,14.68
2022-11-21T13:54:05.894Z,15.98
2022-11-21T13:57:25.569Z,13.00
2022-11-21T14:00:05.207Z,14.90
2022-11-21T14:02:53.465Z,12.40
2022-11-21T14:05:58.822Z,12.70
2022-11-21T14:08:29.009Z,12.63
2022-11-21T14:10:58.301Z,14.10
2022-11-21T14:13:33.675Z,15.82
2022-11-21T14:16:35.171Z,12.40
2022-11-21T14:19:03.860Z,15.57
2022-11-21T14:21:34.204Z,14.75
2022-11-21T14:24:13.275Z,15.35
2022-11-21T14:26:49.323Z,18.92
2022-11-21T14:29:40.469Z,19.60
2022-11-21T14:32:15.462Z,22.42
2022-11-21T14:34:42.672Z,25.70
2022-11-21T14:37:13.932Z,28.58
2022-11-21T14:39:44.943Z,22.90
2022-11-21T14:42:16.357Z,23.02
2022-11-21T14:44:44.122Z,18.48
2022-11-21T14:47:26.312Z,16.95
2022-11-21T14:49:57.028Z,19.45
2022-11-21T14:52:31.802Z,19.02
2022-11-21T14:57:50.245Z,20.63
2022-11-21T15:00:57.941Z,16.20
2022-11-21T15:03:21.862Z,16.63
2022-11-21T15:06:08.257Z,16.45
2022-11-21T15:12:02.533Z,17.35
2022-11-21T15:15:01.589Z,22.00
2022-11-21T15:17:30.344Z,24.00
2022-11-21T15:20:25.322Z,24.90
2022-11-21T15:23:00.222Z,25.05
2022-11-21T15:25:31.490Z,25.48
2022-11-21T15:28:02.450Z,26.40
2022-11-21T15:30:34.645Z,24.00
2022-11-21T15:33:19.926Z,25.75
2022-11-21T15:35:58.563Z,27.33
2022-11-21T15:38:47.222Z,33.38
2022-11-21T15:41:14.747Z,33.25
2022-11-21T15:43:46.476Z,32.42
2022-11-21T15:46:31.026Z,38.42
2022-11-21T15:49:31.570Z,36.05
2022-11-21T15:52:13.594Z,34.90
2022-11-21T15:54:40.846Z,31.33
2022-11-21T15:57:09.940Z,27.70
2022-11-21T15:59:37.272Z,30.48
2022-11-21T16:02:04.807Z,29.38
2022-11-21T16:04:32.127Z,32.97
2022-11-21T16:07:00.367Z,39.83
2022-11-21T16:09:29.641Z,33.88
2022-11-21T16:11:57.447Z,37.58
2022-11-21T16:14:24.715Z,46.95
2022-11-21T16:16:52.266Z,48.55
2022-11-21T16:19:19.479Z,51.55
2022-11-21T16:21:47.033Z,51.78
2022-11-21T16:24:14.341Z,54.00
2022-11-21T16:26:41.897Z,39.75
2022-11-21T16:29:11.667Z,44.10
2022-11-21T16:31:39.330Z,43.72
2022-11-21T16:34:06.625Z,44.80
2022-11-21T16:36:34.320Z,40.22
2022-11-21T16:39:08.703Z,44.72
2022-11-21T16:41:39.471Z,47.50
2022-11-21T16:44:14.255Z,40.60
2022-11-21T16:46:47.319Z,46.22
2022-11-21T16:49:14.892Z,43.80
2022-11-21T16:51:42.449Z,44.55
2022-11-21T16:54:09.945Z,46.50
2022-11-21T16:56:37.562Z,47.00
2022-11-21T16:59:04.995Z,45.83
2022-11-21T17:01:32.627Z,45.05
2022-11-21T17:04:00.010Z,48.80
2022-11-21T17:06:31.281Z,52.38
2022-11-21T17:09:02.168Z,51.05
2022-11-21T17:11:31.632Z,50.25
2022-11-21T17:14:06.451Z,40.72
2022-11-21T17:16:35.786Z,43.08
2022-11-21T17:19:04.757Z,45.35
2022-11-21T17:21:34.065Z,50.13
2022-11-21T17:24:01.266Z,37.38
2022-11-21T17:26:30.114Z,37.90
2022-11-21T17:29:01.028Z,38.55
2022-11-21T17:31:29.331Z,40.25
2022-11-21T17:33:58.730Z,33.75
2022-11-21T17:36:29.293Z,36.05
2022-11-21T17:38:56.878Z,36.80
2022-11-21T17:41:26.028Z,35.63
2022-11-21T17:43:58.501Z,34.65
2022-11-21T17:46:27.298Z,39.85
2022-11-21T17:48:58.955Z,38.38
2022-11-21T17:51:34.568Z,39.00
2022-11-21T17:54:02.655Z,41.22
2022-11-21T17:56:33.398Z,45.65
2022-11-21T17:59:01.244Z,50.13
2022-11-21T18:01:29.699Z,44.25
2022-11-21T18:04:11.661Z,43.25
2022-11-21T18:06:41.008Z,45.08
2022-11-21T18:09:11.040Z,44.25
2022-11-21T18:11:40.688Z,42.53
2022-11-21T18:14:10.868Z,44.08
2022-11-21T18:16:39.763Z,42.78
2022-11-21T18:19:11.197Z,49.95
2022-11-21T18:21:38.789Z,44.42
2022-11-21T18:24:06.549Z,51.38
2022-11-21T18:26:39.456Z,51.55
2022-11-21T18:31:57.309Z,55.47
2022-11-21T18:34:24.535Z,46.67
2022-11-21T18:36:53.744Z,54.03
2022-11-21T18:39:23.958Z,53.33
2022-11-21T18:41:51.580Z,62.15
2022-11-21T18:44:22.284Z,66.05
2022-11-21T18:46:50.775Z,62.83
2022-11-21T18:49:18.308Z,71.47
2022-11-21T18:51:46.411Z,63.05
2022-11-21T18:54:13.856Z,66.78
2022-11-21T18:56:41.463Z,83.00
2022-11-21T18:59:08.691Z,76.28
2022-11-21T19:01:39.515Z,78.43
2022-11-21T19:04:07.184Z,69.80
2022-11-21T19:06:35.126Z,61.35
2022-11-21T19:09:02.441Z,72.43
2022-11-21T19:11:30.573Z,62.42
2022-11-21T19:14:00.617Z,62.03
2022-11-21T19:16:31.613Z,56.92
2022-11-21T19:19:33.074Z,61.40
2022-11-21T19:21:47.310Z,57.88
2022-11-21T19:24:19.613Z,61.35
2022-11-21T19:26:47.315Z,58.72
2022-11-21T19:29:14.571Z,59.40
2022-11-21T19:31:45.775Z,65.43
2022-11-21T19:34:15.658Z,67.30
2022-11-21T19:36:44.929Z,64.22
2022-11-21T19:39:13.137Z,70.18
2022-11-21T19:41:40.871Z,66.28
2022-11-21T19:44:08.109Z,65.05
2022-11-21T19:46:39.827Z,68.40
2022-11-21T19:49:10.407Z,65.95
2022-11-21T19:51:41.749Z,70.20
2022-11-21T19:54:12.708Z,71.90
2022-11-21T19:56:40.700Z,65.93
2022-11-21T19:59:11.662Z,66.75
2022-11-21T20:01:39.869Z,67.30
2022-11-21T20:04:07.221Z,69.43
2022-11-21T20:06:46.206Z,69.00
2022-11-21T20:09:17.440Z,75.15
2022-11-21T20:11:49.370Z,78.57
2022-11-21T20:14:21.951Z,75.57
2022-11-21T20:16:52.997Z,76.68
2022-11-21T20:19:24.074Z,74.50
2022-11-21T20:21:52.837Z,74.28
2022-11-21T20:24:20.149Z,68.28
2022-11-21T20:26:47.840Z,77.95
2022-11-21T20:29:16.601Z,82.45
2022-11-21T20:31:44.573Z,85.03
2022-11-21T20:34:13.797Z,81.65
2022-11-21T20:36:42.649Z,79.82
2022-11-21T20:39:18.742Z,83.10
2022-11-21T20:41:48.270Z,82.03
2022-11-21T20:47:11.235Z,85.93
2022-11-21T20:49:38.555Z,76.72
2022-11-21T20:54:54.573Z,79.38
2022-11-21T20:57:22.672Z,86.03
2022-11-21T20:59:50.893Z,85.43
2022-11-21T21:02:19.323Z,85.93
2022-11-21T21:04:46.962Z,95.88
2022-11-21T21:07:14.580Z,77.75
2022-11-21T21:09:41.824Z,83.18
2022-11-21T21:12:09.413Z,75.72
2022-11-21T21:14:36.759Z,73.70
2022-11-21T21:17:04.270Z,82.28
2022-11-21T21:19:31.823Z,69.50
2022-11-21T21:21:59.654Z,69.32
2022-11-21T21:24:27.773Z,63.03
2022-11-21T21:26:55.241Z,44.83
2022-11-21T21:29:22.495Z,60.35
2022-11-21T21:31:52.327Z,64.75
2022-11-21T21:34:22.444Z,76.20
2022-11-21T21:36:51.216Z,90.93
2022-11-21T21:39:18.637Z,82.78
2022-11-21T21:41:47.255Z,108.30
2022-11-21T21:44:15.666Z,137.52
2022-11-21T21:46:43.731Z,137.70
2022-11-21T21:49:11.659Z,101.80
2022-11-21T21:51:40.112Z,92.18
2022-11-21T21:54:14.896Z,64.05
2022-11-21T21:56:42.569Z,62.45
2022-11-21T21:59:09.871Z,73.55
2022-11-21T22:01:37.648Z,75.22
2022-11-21T22:04:06.384Z,62.15
2022-11-21T22:06:35.067Z,69.97
2022-11-21T22:09:03.439Z,72.57
2022-11-21T22:11:37.159Z,64.47
2022-11-21T22:14:10.273Z,73.65
2022-11-21T22:16:37.805Z,74.85
2022-11-21T22:19:05.118Z,86.15
2022-11-21T22:21:36.302Z,83.82
2022-11-21T22:24:27.748Z,94.97
2022-11-21T22:26:55.668Z,99.07
2022-11-21T22:29:23.079Z,83.00
2022-11-21T22:31:51.634Z,73.68
2022-11-21T22:34:18.887Z,76.18
2022-11-21T22:36:46.939Z,73.70
2022-11-21T22:39:15.383Z,73.85
2022-11-21T22:41:42.827Z,74.35
2022-11-21T22:44:10.238Z,81.93
2022-11-21T22:46:37.848Z,85.18
2022-11-21T22:49:05.068Z,82.10
2022-11-21T22:51:32.613Z,65.88
2022-11-21T22:53:59.713Z,67.75
2022-11-21T22:56:27.359Z,75.78
2022-11-21T22:58:54.929Z,71.90
2022-11-21T23:01:25.753Z,64.70
2022-11-21T23:03:53.433Z,76.35
2022-11-21T23:06:24.337Z,75.85
2022-11-21T23:08:54.240Z,82.85
2022-11-21T23:11:27.817Z,78.13
2022-11-21T23:13:56.401Z,64.38
2022-11-21T23:16:25.103Z,66.88
2022-11-21T23:18:54.313Z,64.15
2022-11-21T23:21:22.718Z,79.05
2022-11-21T23:23:50.145Z,75.32
2022-11-21T23:26:17.870Z,69.25
2022-11-21T23:28:45.165Z,73.40
2022-11-21T23:31:12.766Z,71.57
2022-11-21T23:33:40.017Z,69.55
2022-11-21T23:36:07.634Z,68.05
2022-11-21T23:38:34.907Z,63.97
2022-11-21T23:41:02.398Z,81.85
2022-11-21T23:43:29.608Z,72.78
2022-11-21T23:45:57.259Z,72.60
2022-11-21T23:48:24.480Z,91.70
2022-11-21T23:50:52.320Z,70.20
2022-11-21T23:53:21.016Z,72.30
2022-11-21T23:55:48.953Z,74.63
2022-11-21T23:58:17.185Z,86.47
